Terminal Aerodrome Forecast
Issued by NWS

Home | Current Version | Previous Version | Text Only | Print | Product List | Glossary On
Versions: 1 2 3 4 5 6 7 8 9 10 11 12
863
FTAK31 PAFA 221141
TAFATA
TAF
PATA 221141Z 2212/2312 00000KT P6SM BKN100
     FM221800 11004KT P6SM SCT080 SCT200
     FM222200 09008KT P6SM SCT080 SCT200=

USA.gov is the U.S. government's official web portal to all federal, state and local government web resources and services.